createdAt,value
2022-09-09T00:00:22.559Z,111.60
2022-09-09T00:43:31.436Z,95.37
2022-09-09T00:45:35.580Z,157.53
2022-09-09T00:47:40.134Z,109.20
2022-09-09T00:49:15.324Z,102.87
2022-09-09T00:50:58.180Z,134.77
2022-09-09T00:52:45.707Z,116.60
2022-09-09T00:54:41.399Z,72.10
2022-09-09T01:22:00.989Z,61.33
2022-09-09T01:23:58.286Z,54.20
2022-09-09T01:43:31.755Z,37.50
2022-09-09T06:04:17.194Z,12.60
2022-09-09T06:06:02.670Z,13.30
2022-09-09T06:07:36.684Z,14.57
2022-09-09T06:09:11.405Z,13.83
2022-09-09T06:10:44.592Z,13.67
2022-09-09T06:18:28.104Z,15.40
2022-09-09T06:20:00.211Z,14.55
2022-09-09T07:21:28.004Z,8.45
2022-09-09T07:23:00.225Z,8.73
2022-09-09T07:24:32.726Z,8.07
2022-09-09T09:29:50.538Z,4.70
2022-09-09T09:31:28.396Z,4.13
2022-09-09T09:33:04.498Z,4.53
2022-09-09T09:34:36.648Z,4.55
2022-09-09T09:36:09.897Z,4.50
2022-09-09T09:41:52.132Z,4.47
2022-09-09T09:43:36.762Z,4.57
2022-09-09T09:45:29.356Z,4.03
2022-09-09T09:47:21.506Z,3.88
2022-09-09T09:49:09.747Z,4.10
2022-09-09T09:50:53.527Z,3.95
2022-09-09T09:52:29.680Z,3.83
2022-09-09T09:54:14.249Z,4.05
2022-09-09T09:55:59.441Z,4.05
2022-09-09T09:57:34.088Z,4.53
2022-09-09T09:59:13.312Z,4.05
2022-09-09T10:00:56.436Z,4.25
2022-09-09T10:02:41.709Z,4.18
2022-09-09T10:04:27.188Z,3.92
2022-09-09T10:05:59.544Z,3.83
2022-09-09T10:07:32.796Z,4.15
2022-09-09T10:09:24.008Z,4.30
2022-09-09T10:11:21.006Z,4.10
2022-09-09T10:13:16.503Z,4.43
2022-09-09T10:15:09.287Z,4.88
2022-09-09T10:16:59.652Z,4.55
2022-09-09T10:18:45.882Z,4.75
2022-09-09T10:20:38.687Z,4.20
2022-09-09T10:22:31.043Z,4.93
2022-09-09T10:24:30.451Z,4.15
2022-09-09T10:26:40.995Z,4.15
2022-09-09T10:29:01.466Z,4.22
2022-09-09T10:30:51.717Z,4.50
2022-09-09T10:33:14.471Z,4.18
2022-09-09T10:35:14.332Z,4.20
2022-09-09T10:36:51.950Z,4.20
2022-09-09T10:38:42.131Z,4.13
2022-09-09T10:40:42.339Z,3.85
2022-09-09T10:42:18.104Z,3.90
2022-09-09T10:44:35.464Z,4.28
2022-09-09T10:46:37.061Z,3.92
2022-09-09T10:48:40.126Z,4.07
2022-09-09T10:51:03.887Z,3.88
2022-09-09T10:52:51.980Z,4.15
2022-09-09T10:54:34.277Z,3.70
2022-09-09T10:56:13.186Z,3.55
2022-09-09T10:58:08.422Z,4.00
2022-09-09T10:59:52.872Z,4.15
2022-09-09T11:01:45.977Z,3.97
2022-09-09T11:03:26.883Z,4.53
2022-09-09T11:05:48.869Z,4.00
2022-09-09T11:07:57.639Z,3.88
2022-09-09T11:09:39.208Z,3.63
2022-09-09T11:11:23.158Z,4.82
2022-09-09T11:13:05.110Z,4.22
2022-09-09T11:14:55.615Z,3.53
2022-09-09T11:17:03.352Z,3.17
2022-09-09T11:18:44.114Z,3.85
2022-09-09T11:20:16.502Z,3.92
2022-09-09T11:21:52.979Z,3.72
2022-09-09T11:23:44.650Z,3.10
2022-09-09T11:25:23.745Z,3.15
2022-09-09T11:27:27.746Z,3.30
2022-09-09T11:29:41.857Z,3.33
2022-09-09T11:31:49.525Z,3.40
2022-09-09T11:33:52.478Z,3.10
2022-09-09T11:35:54.647Z,3.30
2022-09-09T11:38:11.098Z,3.50
2022-09-09T11:40:20.179Z,3.63
2022-09-09T11:41:52.323Z,3.55
2022-09-09T11:43:49.545Z,4.03
2022-09-09T11:45:30.253Z,3.70
2022-09-09T11:47:02.474Z,3.50
2022-09-09T11:49:01.403Z,3.30
2022-09-09T11:50:38.958Z,3.42
2022-09-09T11:52:38.128Z,3.38
2022-09-09T11:54:33.831Z,3.25
2022-09-09T11:56:16.554Z,3.47
2022-09-09T11:57:49.650Z,3.40
2022-09-09T11:59:29.972Z,3.20
2022-09-09T12:01:02.444Z,3.58
2022-09-09T12:02:37.675Z,4.22
2022-09-09T12:04:29.855Z,3.55
2022-09-09T12:06:44.500Z,3.15
2022-09-09T12:08:29.308Z,4.60
2022-09-09T12:10:33.600Z,3.75
2022-09-09T12:12:34.682Z,3.70
2022-09-09T12:14:42.421Z,3.60
2022-09-09T12:16:38.313Z,3.53
2022-09-09T12:18:24.559Z,4.00
2022-09-09T12:20:11.947Z,3.30
2022-09-09T12:22:07.423Z,3.53
2022-09-09T12:23:56.925Z,3.55
2022-09-09T12:25:56.941Z,3.38
2022-09-09T12:27:54.344Z,3.20
2022-09-09T12:29:50.871Z,3.63
2022-09-09T12:32:01.485Z,3.47
2022-09-09T12:33:44.266Z,3.60
2022-09-09T12:35:27.056Z,3.60
2022-09-09T12:37:43.404Z,3.60
2022-09-09T12:39:47.411Z,4.07
2022-09-09T12:41:26.062Z,3.40
2022-09-09T12:43:02.438Z,3.58
2022-09-09T12:44:34.966Z,2.88
2022-09-09T12:46:30.107Z,3.22
2022-09-09T12:48:13.057Z,3.35
2022-09-09T12:49:45.787Z,3.40
2022-09-09T12:51:28.007Z,3.30
2022-09-09T12:53:26.535Z,3.20
2022-09-09T12:55:03.317Z,3.55
2022-09-09T12:56:37.052Z,3.45
2022-09-09T12:58:16.047Z,3.22
2022-09-09T12:59:49.462Z,3.00
2022-09-09T13:01:30.465Z,3.08
2022-09-09T13:03:17.888Z,3.25
2022-09-09T13:04:51.646Z,3.42
2022-09-09T13:06:33.459Z,3.28
2022-09-09T13:08:11.227Z,2.97
2022-09-09T13:09:45.496Z,3.30
2022-09-09T13:11:31.288Z,3.47
2022-09-09T13:13:04.171Z,3.42
2022-09-09T13:14:38.428Z,3.47
2022-09-09T13:16:39.055Z,3.50
2022-09-09T13:18:15.876Z,3.42
2022-09-09T13:19:51.350Z,3.20
2022-09-09T13:21:38.355Z,3.50
2022-09-09T13:23:13.753Z,3.15
2022-09-09T13:24:46.184Z,3.00
2022-09-09T13:26:26.883Z,3.22
2022-09-09T13:28:04.477Z,3.45
2022-09-09T13:29:38.399Z,3.35
2022-09-09T13:31:34.863Z,3.15
2022-09-09T13:33:15.615Z,2.92
2022-09-09T13:35:01.240Z,3.15
2022-09-09T13:36:36.132Z,2.90
2022-09-09T13:38:12.863Z,3.55
2022-09-09T13:39:54.456Z,3.72
2022-09-09T13:41:34.464Z,3.08
2022-09-09T13:43:20.174Z,3.33
2022-09-09T13:44:52.986Z,3.58
2022-09-09T13:46:37.711Z,3.60
2022-09-09T13:48:11.604Z,3.60
2022-09-09T14:20:00.630Z,3.70
2022-09-09T14:23:38.068Z,3.70
2022-09-09T14:28:54.786Z,3.50
2022-09-09T14:30:30.657Z,3.50
2022-09-09T14:32:06.588Z,3.60
2022-09-09T14:33:48.265Z,3.25
2022-09-09T14:35:22.646Z,3.67
2022-09-09T14:36:55.096Z,3.13
2022-09-09T14:38:32.858Z,3.70
2022-09-09T14:43:44.874Z,3.47
2022-09-09T14:45:20.555Z,3.88
2022-09-09T14:48:45.900Z,3.80
2022-09-09T14:50:27.247Z,3.67
2022-09-09T14:52:06.997Z,3.50
2022-09-09T14:53:48.759Z,3.25
2022-09-09T14:55:29.705Z,3.30
2022-09-09T14:57:08.417Z,3.30
2022-09-09T14:58:47.750Z,3.80
2022-09-09T15:02:11.525Z,3.97
2022-09-09T15:04:07.931Z,3.55
2022-09-09T15:05:48.107Z,3.50
2022-09-09T15:07:27.342Z,3.33
2022-09-09T15:09:06.677Z,3.90
2022-09-09T15:10:46.060Z,4.30
2022-09-09T15:12:24.643Z,3.75
2022-09-09T15:14:02.724Z,3.85
2022-09-09T15:15:42.442Z,3.97
2022-09-09T15:17:21.585Z,3.97
2022-09-09T15:19:03.616Z,4.20
2022-09-09T15:20:47.382Z,4.05
2022-09-09T15:22:26.290Z,4.80
2022-09-09T15:24:06.202Z,5.05
2022-09-09T15:25:57.489Z,5.03
2022-09-09T15:27:36.027Z,5.47
2022-09-09T15:29:14.113Z,5.57
2022-09-09T15:30:57.996Z,5.60
2022-09-09T15:32:36.461Z,5.90
2022-09-09T15:34:14.754Z,5.32
2022-09-09T15:35:53.690Z,5.60
2022-09-09T15:37:32.391Z,5.32
2022-09-09T15:39:16.501Z,5.57
2022-09-09T15:41:06.986Z,5.50
2022-09-09T15:42:48.987Z,5.40
2022-09-09T15:44:47.706Z,5.72
2022-09-09T15:47:06.998Z,6.50
2022-09-09T15:48:53.757Z,5.47
2022-09-09T15:50:44.501Z,5.75
2022-09-09T15:52:24.340Z,6.00
2022-09-09T15:54:07.248Z,6.22
2022-09-09T15:55:47.725Z,6.78
2022-09-09T15:57:30.030Z,6.45
2022-09-09T15:59:17.474Z,7.03
2022-09-09T16:01:01.236Z,7.00
2022-09-09T16:02:40.435Z,7.00
2022-09-09T16:04:30.996Z,8.43
2022-09-09T16:06:10.589Z,9.07
2022-09-09T16:07:50.150Z,8.73
2022-09-09T16:09:31.329Z,9.20
2022-09-09T16:11:20.057Z,9.20
2022-09-09T16:13:16.368Z,8.17
2022-09-09T16:14:58.175Z,7.93
2022-09-09T16:17:01.446Z,7.90
2022-09-09T16:18:53.780Z,8.70
2022-09-09T16:20:35.252Z,9.10
2022-09-09T16:22:20.586Z,9.10
2022-09-09T16:24:04.986Z,9.10
2022-09-09T16:25:46.443Z,9.30
2022-09-09T16:27:26.053Z,8.40
2022-09-09T16:29:06.503Z,8.07
2022-09-09T16:30:46.628Z,9.93
2022-09-09T16:32:29.409Z,9.17
2022-09-09T16:34:13.881Z,9.77
2022-09-09T16:36:12.505Z,9.97
2022-09-09T16:37:54.789Z,9.73
2022-09-09T16:39:36.553Z,9.53
2022-09-09T16:41:19.729Z,8.83
2022-09-09T16:42:59.357Z,8.83
2022-09-09T16:44:40.607Z,8.97
2022-09-09T16:46:36.478Z,9.80
2022-09-09T16:48:18.202Z,9.37
2022-09-09T16:49:57.606Z,10.00
2022-09-09T16:51:41.293Z,9.73
2022-09-09T16:53:22.288Z,9.63
2022-09-09T16:55:07.238Z,9.90
2022-09-09T16:56:49.970Z,9.40
2022-09-09T16:58:29.544Z,9.97
2022-09-09T17:00:11.882Z,9.77
2022-09-09T17:01:54.576Z,10.47
2022-09-09T17:03:36.070Z,10.73
2022-09-09T17:05:37.983Z,11.03
2022-09-09T17:07:18.207Z,11.20
2022-09-09T17:09:07.326Z,11.20
2022-09-09T17:10:49.849Z,12.13
2022-09-09T17:12:33.645Z,12.30
2022-09-09T17:14:20.638Z,11.60
2022-09-09T17:16:03.295Z,13.03
2022-09-09T17:17:51.167Z,12.53
2022-09-09T17:19:29.475Z,12.33
2022-09-09T17:21:30.845Z,12.83
2022-09-09T17:23:13.221Z,13.13
2022-09-09T17:24:53.608Z,11.90
2022-09-09T17:26:35.511Z,11.87
2022-09-09T17:28:36.185Z,11.33
2022-09-09T17:30:18.408Z,11.67
2022-09-09T17:31:58.514Z,12.40
2022-09-09T17:33:40.952Z,12.77
2022-09-09T17:35:19.983Z,13.43
2022-09-09T17:36:58.306Z,13.03
2022-09-09T17:38:36.539Z,13.67
2022-09-09T17:40:15.307Z,12.80
2022-09-09T17:41:55.688Z,12.27
2022-09-09T17:43:34.251Z,13.23
2022-09-09T17:45:12.990Z,14.10
2022-09-09T17:46:51.603Z,13.93
2022-09-09T17:48:32.440Z,14.37
2022-09-09T17:50:13.734Z,13.50
2022-09-09T17:51:51.601Z,12.63
2022-09-09T17:53:30.977Z,13.43
2022-09-09T17:55:10.340Z,14.23
2022-09-09T17:56:49.963Z,12.17
2022-09-09T17:58:28.797Z,14.60
2022-09-09T18:00:11.447Z,12.77
2022-09-09T18:01:51.747Z,13.13
2022-09-09T18:03:29.891Z,13.73
2022-09-09T18:05:09.126Z,16.10
2022-09-09T18:06:52.028Z,16.00
2022-09-09T18:08:34.656Z,16.00
2022-09-09T18:10:14.787Z,15.43
2022-09-09T18:12:01.699Z,15.67
2022-09-09T18:13:39.656Z,16.77
2022-09-09T18:15:33.460Z,15.90
2022-09-09T18:17:16.528Z,15.97
2022-09-09T18:18:55.994Z,16.33
2022-09-09T18:20:34.718Z,16.47
2022-09-09T18:22:12.756Z,15.97
2022-09-09T18:23:52.869Z,17.00
2022-09-09T18:25:30.579Z,16.67
2022-09-09T18:27:09.455Z,16.83
2022-09-09T18:28:53.385Z,16.77
2022-09-09T18:30:31.869Z,17.47
2022-09-09T18:32:10.558Z,16.90
2022-09-09T18:33:50.566Z,17.17
2022-09-09T18:35:29.101Z,17.57
2022-09-09T18:37:07.968Z,17.27
2022-09-09T18:38:46.898Z,17.60
2022-09-09T18:40:25.602Z,18.97
2022-09-09T18:42:05.143Z,17.43
2022-09-09T18:43:43.748Z,19.03
2022-09-09T18:45:22.752Z,18.73
2022-09-09T18:47:00.591Z,18.87
2022-09-09T18:48:39.222Z,18.60
2022-09-09T18:50:19.039Z,18.53
2022-09-09T18:51:58.191Z,19.37
2022-09-09T18:53:37.734Z,18.43
2022-09-09T18:55:16.014Z,19.10
2022-09-09T18:56:55.336Z,19.60
2022-09-09T18:58:36.388Z,18.53
2022-09-09T19:00:15.404Z,18.40
2022-09-09T19:01:56.546Z,18.70
2022-09-09T19:03:38.213Z,18.73
2022-09-09T19:05:15.862Z,18.73
2022-09-09T19:06:59.497Z,18.30
2022-09-09T19:08:43.659Z,19.40
2022-09-09T19:10:22.885Z,19.73
2022-09-09T19:12:02.588Z,18.67
2022-09-09T19:13:42.539Z,18.60
2022-09-09T19:15:21.043Z,18.53
2022-09-09T19:17:00.485Z,19.37
2022-09-09T19:18:39.936Z,19.33
2022-09-09T19:20:20.903Z,19.63
2022-09-09T19:22:00.001Z,19.03
2022-09-09T19:23:38.963Z,20.40
2022-09-09T19:25:17.303Z,18.63
2022-09-09T19:27:01.910Z,17.90
2022-09-09T19:28:41.278Z,20.10
2022-09-09T19:30:19.529Z,19.47
2022-09-09T19:32:42.272Z,20.53
2022-09-09T19:34:01.275Z,21.03
2022-09-09T19:35:39.321Z,22.20
2022-09-09T19:37:18.875Z,21.77
2022-09-09T19:38:59.007Z,22.37
2022-09-09T19:40:39.942Z,22.40
2022-09-09T19:42:18.179Z,21.83
2022-09-09T19:44:02.205Z,22.23
2022-09-09T19:45:40.939Z,23.47
2022-09-09T19:47:21.137Z,21.27
2022-09-09T19:49:01.423Z,24.80
2022-09-09T19:50:41.046Z,24.43
2022-09-09T19:52:19.745Z,26.53
2022-09-09T19:54:06.247Z,25.10
2022-09-09T19:55:44.404Z,24.67
2022-09-09T19:57:23.695Z,25.30
2022-09-09T19:59:03.941Z,23.43
2022-09-09T20:00:41.837Z,24.70
2022-09-09T20:02:20.384Z,25.13
2022-09-09T20:04:02.991Z,24.73
2022-09-09T20:05:40.981Z,25.23
2022-09-09T20:07:19.271Z,25.83
2022-09-09T20:08:59.477Z,24.10
2022-09-09T20:10:38.265Z,25.90
2022-09-09T20:12:16.985Z,25.03
2022-09-09T20:13:56.506Z,27.70
2022-09-09T20:15:35.410Z,27.07
2022-09-09T20:17:13.513Z,26.57
2022-09-09T20:18:56.818Z,27.80
2022-09-09T20:20:34.994Z,25.00
2022-09-09T20:22:13.342Z,26.10
2022-09-09T20:23:53.303Z,27.90
2022-09-09T20:25:32.203Z,32.97
2022-09-09T20:27:09.962Z,28.40
2022-09-09T20:28:53.153Z,26.03
2022-09-09T20:30:33.064Z,28.93
2022-09-09T20:32:12.143Z,27.13
2022-09-09T20:33:52.056Z,26.50
2022-09-09T20:35:31.395Z,30.23
2022-09-09T20:37:10.067Z,31.80
2022-09-09T20:39:01.454Z,32.13
2022-09-09T20:40:45.230Z,32.83
2022-09-09T20:42:25.394Z,34.80
2022-09-09T20:44:13.398Z,33.80
2022-09-09T20:45:54.853Z,37.43
2022-09-09T20:47:34.353Z,40.17
2022-09-09T20:49:16.390Z,43.53
2022-09-09T20:50:54.355Z,45.47
2022-09-09T20:52:32.909Z,37.50
2022-09-09T20:54:15.882Z,39.63
2022-09-09T20:55:54.081Z,36.90
2022-09-09T20:57:31.635Z,35.87
2022-09-09T20:59:17.079Z,32.77
2022-09-09T21:00:59.945Z,39.27
2022-09-09T21:02:38.344Z,37.97
2022-09-09T21:04:17.891Z,34.07
2022-09-09T21:05:58.156Z,38.87
2022-09-09T21:07:35.858Z,39.03
2022-09-09T21:09:15.249Z,34.20
2022-09-09T21:10:53.046Z,31.87
2022-09-09T21:12:31.309Z,31.63
2022-09-09T21:14:09.965Z,38.07
2022-09-09T21:15:52.289Z,42.93
2022-09-09T21:17:29.972Z,39.97
2022-09-09T21:19:09.534Z,38.70
2022-09-09T21:20:49.534Z,36.07
2022-09-09T21:22:27.691Z,43.00
2022-09-09T21:24:06.816Z,41.17
2022-09-09T21:25:45.455Z,44.90
2022-09-09T21:27:23.743Z,41.67
2022-09-09T21:29:01.855Z,28.40
2022-09-09T21:30:45.078Z,35.90
2022-09-09T21:32:23.323Z,37.63
2022-09-09T21:34:02.602Z,35.47
2022-09-09T21:35:43.169Z,35.53
2022-09-09T21:37:21.597Z,37.37
2022-09-09T21:39:00.115Z,39.03
2022-09-09T21:40:41.826Z,41.20
2022-09-09T21:42:20.130Z,43.40
2022-09-09T21:43:59.435Z,43.57
2022-09-09T21:45:45.850Z,37.60
2022-09-09T21:47:24.650Z,39.27
2022-09-09T21:49:03.907Z,37.23
2022-09-09T21:50:46.902Z,37.27
2022-09-09T21:52:25.590Z,41.60
2022-09-09T21:54:04.482Z,73.60
2022-09-09T21:55:45.815Z,41.57
2022-09-09T21:57:25.074Z,39.97
2022-09-09T21:59:07.009Z,40.60
2022-09-09T22:00:49.327Z,37.27
2022-09-09T22:02:28.800Z,44.70
2022-09-09T22:04:07.785Z,46.57
2022-09-09T22:05:51.916Z,44.27
2022-09-09T22:07:33.274Z,35.53
2022-09-09T22:09:11.456Z,40.60
2022-09-09T22:10:50.519Z,37.70
2022-09-09T22:12:29.046Z,38.90
2022-09-09T22:14:07.610Z,40.63
2022-09-09T22:15:47.876Z,39.60
2022-09-09T22:17:25.955Z,42.20
2022-09-09T22:19:07.125Z,43.83
2022-09-09T22:20:48.036Z,34.63
2022-09-09T22:22:26.463Z,32.40
2022-09-09T22:24:07.505Z,39.47
2022-09-09T22:25:46.891Z,41.40
2022-09-09T22:27:25.476Z,42.53
2022-09-09T22:29:05.302Z,44.97
2022-09-09T22:30:43.076Z,38.73
2022-09-09T22:32:21.151Z,40.60
2022-09-09T22:34:00.402Z,37.83
2022-09-09T22:35:44.345Z,37.43
2022-09-09T22:37:23.123Z,38.53
2022-09-09T22:39:02.064Z,35.07
2022-09-09T22:40:44.707Z,36.57
2022-09-09T22:42:22.810Z,38.13
2022-09-09T22:44:01.142Z,39.07
2022-09-09T22:45:39.814Z,35.57
2022-09-09T22:47:18.525Z,34.23
2022-09-09T22:48:56.922Z,39.47
2022-09-09T22:50:42.261Z,38.13
2022-09-09T22:52:21.747Z,35.80
2022-09-09T22:54:00.437Z,36.23
2022-09-09T22:55:38.636Z,38.37
2022-09-09T22:57:17.255Z,37.90
2022-09-09T22:58:59.532Z,39.47
2022-09-09T23:00:41.825Z,41.97
2022-09-09T23:02:21.781Z,44.07
2022-09-09T23:04:02.870Z,41.97
2022-09-09T23:05:41.099Z,44.47
2022-09-09T23:07:20.611Z,42.53
2022-09-09T23:09:02.856Z,36.90
2022-09-09T23:10:44.452Z,37.23
2022-09-09T23:12:25.500Z,29.23
2022-09-09T23:14:07.201Z,38.87
2022-09-09T23:15:47.010Z,26.47
2022-09-09T23:17:26.098Z,33.63
2022-09-09T23:19:04.932Z,32.43
2022-09-09T23:20:44.069Z,30.60
2022-09-09T23:22:24.327Z,37.13
2022-09-09T23:24:03.673Z,37.07
2022-09-09T23:25:41.446Z,31.53
2022-09-09T23:27:21.315Z,36.57
2022-09-09T23:29:02.509Z,34.40
2022-09-09T23:30:45.466Z,34.13
2022-09-09T23:32:24.084Z,36.53
2022-09-09T23:34:04.086Z,34.87
2022-09-09T23:35:43.856Z,32.80
2022-09-09T23:37:23.431Z,37.43
2022-09-09T23:39:08.307Z,35.13
2022-09-09T23:40:47.197Z,36.93
2022-09-09T23:42:26.910Z,33.83
2022-09-09T23:44:05.933Z,34.20
2022-09-09T23:45:44.357Z,36.37
2022-09-09T23:47:23.804Z,35.37
2022-09-09T23:49:04.089Z,36.07
2022-09-09T23:50:42.658Z,34.97
2022-09-09T23:52:20.782Z,31.43
2022-09-09T23:54:04.778Z,37.53
2022-09-09T23:55:43.525Z,35.77
2022-09-09T23:57:21.858Z,30.63
2022-09-09T23:59:00.957Z,32.63
